sensor_id;sensor_type;location;lat;lon;timestamp;P1;durP1;ratioP1;P2;durP2;ratioP2
6651;SDS011;3362;50.892;10.692;2023-06-19T00:01:23;7.55;;;4.85;;
6651;SDS011;3362;50.892;10.692;2023-06-19T00:03:49;6.43;;;4.45;;
6651;SDS011;3362;50.892;10.692;2023-06-19T00:06:15;5.72;;;4.25;;
6651;SDS011;3362;50.892;10.692;2023-06-19T00:08:43;5.75;;;4.13;;
6651;SDS011;3362;50.892;10.692;2023-06-19T00:11:09;5.80;;;4.25;;
6651;SDS011;3362;50.892;10.692;2023-06-19T00:13:35;6.55;;;4.35;;
6651;SDS011;3362;50.892;10.692;2023-06-19T00:16:02;5.55;;;4.75;;
6651;SDS011;3362;50.892;10.692;2023-06-19T00:18:28;9.82;;;4.57;;
6651;SDS011;3362;50.892;10.692;2023-06-19T00:20:54;4.45;;;4.00;;
6651;SDS011;3362;50.892;10.692;2023-06-19T00:23:21;6.63;;;4.63;;
6651;SDS011;3362;50.892;10.692;2023-06-19T00:25:49;6.25;;;4.53;;
6651;SDS011;3362;50.892;10.692;2023-06-19T00:28:15;6.15;;;4.53;;
6651;SDS011;3362;50.892;10.692;2023-06-19T00:30:44;9.02;;;4.85;;
6651;SDS011;3362;50.892;10.692;2023-06-19T00:33:11;5.68;;;4.22;;
6651;SDS011;3362;50.892;10.692;2023-06-19T00:35:37;7.88;;;4.18;;
6651;SDS011;3362;50.892;10.692;2023-06-19T00:38:04;9.32;;;5.15;;
6651;SDS011;3362;50.892;10.692;2023-06-19T00:40:31;5.93;;;4.50;;
6651;SDS011;3362;50.892;10.692;2023-06-19T00:42:59;5.45;;;4.22;;
6651;SDS011;3362;50.892;10.692;2023-06-19T00:45:25;5.68;;;4.75;;
6651;SDS011;3362;50.892;10.692;2023-06-19T00:47:52;6.80;;;4.68;;
6651;SDS011;3362;50.892;10.692;2023-06-19T00:50:18;9.05;;;4.10;;
6651;SDS011;3362;50.892;10.692;2023-06-19T00:52:44;6.72;;;4.63;;
6651;SDS011;3362;50.892;10.692;2023-06-19T00:55:10;6.57;;;4.53;;
6651;SDS011;3362;50.892;10.692;2023-06-19T00:57:37;6.18;;;4.65;;
6651;SDS011;3362;50.892;10.692;2023-06-19T01:00:06;5.90;;;4.80;;
6651;SDS011;3362;50.892;10.692;2023-06-19T01:02:33;6.28;;;4.30;;
6651;SDS011;3362;50.892;10.692;2023-06-19T01:05:00;7.45;;;4.45;;
6651;SDS011;3362;50.892;10.692;2023-06-19T01:07:27;6.55;;;4.15;;
6651;SDS011;3362;50.892;10.692;2023-06-19T01:09:56;7.72;;;4.80;;
6651;SDS011;3362;50.892;10.692;2023-06-19T01:12:27;6.72;;;4.90;;
6651;SDS011;3362;50.892;10.692;2023-06-19T01:14:56;6.38;;;4.88;;
6651;SDS011;3362;50.892;10.692;2023-06-19T01:17:24;6.68;;;4.95;;
6651;SDS011;3362;50.892;10.692;2023-06-19T01:19:51;6.75;;;3.88;;
6651;SDS011;3362;50.892;10.692;2023-06-19T01:22:26;7.97;;;5.10;;
6651;SDS011;3362;50.892;10.692;2023-06-19T01:24:52;6.25;;;4.80;;
6651;SDS011;3362;50.892;10.692;2023-06-19T01:27:19;6.57;;;4.95;;
6651;SDS011;3362;50.892;10.692;2023-06-19T01:29:45;6.65;;;5.20;;
6651;SDS011;3362;50.892;10.692;2023-06-19T01:32:13;6.93;;;4.72;;
6651;SDS011;3362;50.892;10.692;2023-06-19T01:34:41;7.28;;;5.10;;
6651;SDS011;3362;50.892;10.692;2023-06-19T01:37:07;5.70;;;4.47;;
6651;SDS011;3362;50.892;10.692;2023-06-19T01:39:37;5.40;;;4.43;;
6651;SDS011;3362;50.892;10.692;2023-06-19T01:42:05;6.57;;;4.50;;
6651;SDS011;3362;50.892;10.692;2023-06-19T01:44:31;6.63;;;4.93;;
6651;SDS011;3362;50.892;10.692;2023-06-19T01:46:58;7.57;;;4.57;;
6651;SDS011;3362;50.892;10.692;2023-06-19T01:49:24;7.05;;;4.85;;
6651;SDS011;3362;50.892;10.692;2023-06-19T01:51:51;7.60;;;5.05;;
6651;SDS011;3362;50.892;10.692;2023-06-19T01:54:17;8.30;;;4.65;;
6651;SDS011;3362;50.892;10.692;2023-06-19T01:56:44;7.70;;;4.80;;
6651;SDS011;3362;50.892;10.692;2023-06-19T01:59:11;6.60;;;4.70;;
6651;SDS011;3362;50.892;10.692;2023-06-19T02:01:37;6.47;;;4.88;;
6651;SDS011;3362;50.892;10.692;2023-06-19T02:04:03;7.88;;;4.57;;
6651;SDS011;3362;50.892;10.692;2023-06-19T02:06:30;6.13;;;4.78;;
6651;SDS011;3362;50.892;10.692;2023-06-19T02:08:56;6.68;;;4.72;;
6651;SDS011;3362;50.892;10.692;2023-06-19T02:11:22;7.78;;;4.72;;
6651;SDS011;3362;50.892;10.692;2023-06-19T02:13:49;7.72;;;4.93;;
6651;SDS011;3362;50.892;10.692;2023-06-19T02:16:16;6.57;;;5.13;;
6651;SDS011;3362;50.892;10.692;2023-06-19T02:18:43;7.32;;;5.03;;
6651;SDS011;3362;50.892;10.692;2023-06-19T02:21:09;7.90;;;5.32;;
6651;SDS011;3362;50.892;10.692;2023-06-19T02:23:35;7.10;;;4.75;;
6651;SDS011;3362;50.892;10.692;2023-06-19T02:26:01;7.93;;;5.72;;
6651;SDS011;3362;50.892;10.692;2023-06-19T02:28:28;7.18;;;4.80;;
6651;SDS011;3362;50.892;10.692;2023-06-19T02:30:55;7.10;;;4.63;;
6651;SDS011;3362;50.892;10.692;2023-06-19T02:33:21;7.53;;;5.15;;
6651;SDS011;3362;50.892;10.692;2023-06-19T02:35:48;11.32;;;6.93;;
6651;SDS011;3362;50.892;10.692;2023-06-19T02:38:14;10.38;;;5.43;;
6651;SDS011;3362;50.892;10.692;2023-06-19T02:40:40;7.32;;;4.85;;
6651;SDS011;3362;50.892;10.692;2023-06-19T02:43:06;6.78;;;5.32;;
6651;SDS011;3362;50.892;10.692;2023-06-19T02:45:33;6.20;;;4.90;;
6651;SDS011;3362;50.892;10.692;2023-06-19T02:48:00;9.88;;;5.50;;
6651;SDS011;3362;50.892;10.692;2023-06-19T02:50:26;7.57;;;5.07;;
6651;SDS011;3362;50.892;10.692;2023-06-19T02:52:52;8.25;;;5.25;;
6651;SDS011;3362;50.892;10.692;2023-06-19T02:55:19;6.97;;;5.15;;
6651;SDS011;3362;50.892;10.692;2023-06-19T02:57:45;9.90;;;5.65;;
6651;SDS011;3362;50.892;10.692;2023-06-19T03:00:13;6.55;;;4.68;;
6651;SDS011;3362;50.892;10.692;2023-06-19T03:02:39;6.82;;;5.05;;
6651;SDS011;3362;50.892;10.692;2023-06-19T03:05:10;11.40;;;6.00;;
6651;SDS011;3362;50.892;10.692;2023-06-19T03:07:36;6.57;;;5.10;;
6651;SDS011;3362;50.892;10.692;2023-06-19T03:10:02;9.20;;;5.45;;
6651;SDS011;3362;50.892;10.692;2023-06-19T03:12:29;6.88;;;5.10;;
6651;SDS011;3362;50.892;10.692;2023-06-19T03:14:55;7.45;;;5.28;;
6651;SDS011;3362;50.892;10.692;2023-06-19T03:17:22;7.85;;;5.63;;
6651;SDS011;3362;50.892;10.692;2023-06-19T03:19:48;8.20;;;5.85;;
6651;SDS011;3362;50.892;10.692;2023-06-19T03:22:15;8.38;;;5.68;;
6651;SDS011;3362;50.892;10.692;2023-06-19T03:24:41;9.18;;;5.25;;
6651;SDS011;3362;50.892;10.692;2023-06-19T03:27:08;7.40;;;5.75;;
6651;SDS011;3362;50.892;10.692;2023-06-19T03:29:34;6.65;;;5.20;;
6651;SDS011;3362;50.892;10.692;2023-06-19T03:32:00;6.93;;;5.15;;
6651;SDS011;3362;50.892;10.692;2023-06-19T03:34:26;12.02;;;5.10;;
6651;SDS011;3362;50.892;10.692;2023-06-19T03:36:52;11.75;;;5.25;;
6651;SDS011;3362;50.892;10.692;2023-06-19T03:39:20;8.23;;;5.80;;
6651;SDS011;3362;50.892;10.692;2023-06-19T03:41:46;7.05;;;5.45;;
6651;SDS011;3362;50.892;10.692;2023-06-19T03:44:12;7.43;;;6.13;;
6651;SDS011;3362;50.892;10.692;2023-06-19T03:46:38;8.18;;;5.78;;
6651;SDS011;3362;50.892;10.692;2023-06-19T03:49:05;6.63;;;5.50;;
6651;SDS011;3362;50.892;10.692;2023-06-19T03:51:31;8.50;;;6.07;;
6651;SDS011;3362;50.892;10.692;2023-06-19T03:53:58;9.73;;;5.68;;
6651;SDS011;3362;50.892;10.692;2023-06-19T03:56:25;12.50;;;6.50;;
6651;SDS011;3362;50.892;10.692;2023-06-19T03:58:51;8.48;;;5.90;;
6651;SDS011;3362;50.892;10.692;2023-06-19T04:01:17;6.82;;;5.63;;
6651;SDS011;3362;50.892;10.692;2023-06-19T04:03:44;8.13;;;5.78;;
6651;SDS011;3362;50.892;10.692;2023-06-19T04:06:10;8.77;;;5.88;;
6651;SDS011;3362;50.892;10.692;2023-06-19T04:08:36;7.47;;;5.57;;
6651;SDS011;3362;50.892;10.692;2023-06-19T04:11:02;8.77;;;6.30;;
6651;SDS011;3362;50.892;10.692;2023-06-19T04:13:30;8.90;;;5.47;;
6651;SDS011;3362;50.892;10.692;2023-06-19T04:15:56;7.88;;;5.78;;
6651;SDS011;3362;50.892;10.692;2023-06-19T04:18:22;11.35;;;6.10;;
6651;SDS011;3362;50.892;10.692;2023-06-19T04:20:49;9.15;;;6.03;;
6651;SDS011;3362;50.892;10.692;2023-06-19T04:23:15;9.25;;;6.25;;
6651;SDS011;3362;50.892;10.692;2023-06-19T04:25:41;7.18;;;5.80;;
6651;SDS011;3362;50.892;10.692;2023-06-19T04:28:07;8.10;;;5.63;;
6651;SDS011;3362;50.892;10.692;2023-06-19T04:30:35;6.47;;;5.40;;
6651;SDS011;3362;50.892;10.692;2023-06-19T04:33:04;9.82;;;6.20;;
6651;SDS011;3362;50.892;10.692;2023-06-19T04:35:31;8.15;;;5.68;;
6651;SDS011;3362;50.892;10.692;2023-06-19T04:37:57;8.32;;;6.50;;
6651;SDS011;3362;50.892;10.692;2023-06-19T04:40:26;8.02;;;5.72;;
6651;SDS011;3362;50.892;10.692;2023-06-19T04:42:52;8.23;;;5.63;;
6651;SDS011;3362;50.892;10.692;2023-06-19T04:45:18;9.15;;;6.10;;
6651;SDS011;3362;50.892;10.692;2023-06-19T04:47:46;8.82;;;6.03;;
6651;SDS011;3362;50.892;10.692;2023-06-19T04:50:12;9.38;;;5.90;;
6651;SDS011;3362;50.892;10.692;2023-06-19T04:52:39;9.95;;;6.43;;
6651;SDS011;3362;50.892;10.692;2023-06-19T04:55:06;8.80;;;5.82;;
6651;SDS011;3362;50.892;10.692;2023-06-19T04:57:34;8.13;;;5.75;;
6651;SDS011;3362;50.892;10.692;2023-06-19T05:00:00;7.68;;;5.80;;
6651;SDS011;3362;50.892;10.692;2023-06-19T05:02:26;8.27;;;6.00;;
6651;SDS011;3362;50.892;10.692;2023-06-19T05:04:54;11.68;;;6.55;;
6651;SDS011;3362;50.892;10.692;2023-06-19T05:07:20;10.23;;;7.10;;
6651;SDS011;3362;50.892;10.692;2023-06-19T05:09:46;9.98;;;5.43;;
6651;SDS011;3362;50.892;10.692;2023-06-19T05:12:12;8.93;;;6.25;;
6651;SDS011;3362;50.892;10.692;2023-06-19T05:14:39;10.63;;;6.00;;
6651;SDS011;3362;50.892;10.692;2023-06-19T05:17:05;8.10;;;5.57;;
6651;SDS011;3362;50.892;10.692;2023-06-19T05:19:31;11.38;;;5.68;;
6651;SDS011;3362;50.892;10.692;2023-06-19T05:21:59;9.90;;;5.82;;
6651;SDS011;3362;50.892;10.692;2023-06-19T05:24:25;9.40;;;6.43;;
6651;SDS011;3362;50.892;10.692;2023-06-19T05:26:51;7.43;;;5.57;;
6651;SDS011;3362;50.892;10.692;2023-06-19T05:29:17;7.97;;;5.80;;
6651;SDS011;3362;50.892;10.692;2023-06-19T05:31:44;10.05;;;6.25;;
6651;SDS011;3362;50.892;10.692;2023-06-19T05:34:10;12.75;;;7.05;;
6651;SDS011;3362;50.892;10.692;2023-06-19T05:36:36;12.82;;;6.43;;
6651;SDS011;3362;50.892;10.692;2023-06-19T05:39:03;12.15;;;6.20;;
6651;SDS011;3362;50.892;10.692;2023-06-19T05:41:30;10.75;;;6.45;;
6651;SDS011;3362;50.892;10.692;2023-06-19T05:43:56;12.98;;;7.65;;
6651;SDS011;3362;50.892;10.692;2023-06-19T05:46:22;13.70;;;5.95;;
6651;SDS011;3362;50.892;10.692;2023-06-19T05:48:48;9.25;;;6.32;;
6651;SDS011;3362;50.892;10.692;2023-06-19T05:51:15;10.90;;;5.68;;
6651;SDS011;3362;50.892;10.692;2023-06-19T05:53:41;8.88;;;5.57;;
6651;SDS011;3362;50.892;10.692;2023-06-19T05:56:08;7.45;;;4.75;;
6651;SDS011;3362;50.892;10.692;2023-06-19T05:58:34;10.65;;;4.60;;
6651;SDS011;3362;50.892;10.692;2023-06-19T06:01:01;6.40;;;4.32;;
6651;SDS011;3362;50.892;10.692;2023-06-19T06:03:28;8.25;;;4.65;;
6651;SDS011;3362;50.892;10.692;2023-06-19T06:05:55;6.53;;;5.25;;
6651;SDS011;3362;50.892;10.692;2023-06-19T06:08:27;7.35;;;5.05;;
6651;SDS011;3362;50.892;10.692;2023-06-19T06:10:53;5.30;;;4.07;;
6651;SDS011;3362;50.892;10.692;2023-06-19T06:13:21;10.65;;;4.57;;
6651;SDS011;3362;50.892;10.692;2023-06-19T06:15:47;6.38;;;4.22;;
6651;SDS011;3362;50.892;10.692;2023-06-19T06:18:13;6.13;;;4.30;;
6651;SDS011;3362;50.892;10.692;2023-06-19T06:20:39;11.02;;;7.72;;
6651;SDS011;3362;50.892;10.692;2023-06-19T06:23:05;6.25;;;5.65;;
6651;SDS011;3362;50.892;10.692;2023-06-19T06:25:31;7.55;;;5.40;;
6651;SDS011;3362;50.892;10.692;2023-06-19T06:27:58;6.40;;;5.22;;
6651;SDS011;3362;50.892;10.692;2023-06-19T06:30:26;8.50;;;4.30;;
6651;SDS011;3362;50.892;10.692;2023-06-19T06:32:52;9.27;;;5.22;;
6651;SDS011;3362;50.892;10.692;2023-06-19T06:35:18;7.35;;;4.57;;
6651;SDS011;3362;50.892;10.692;2023-06-19T06:37:44;6.30;;;4.45;;
6651;SDS011;3362;50.892;10.692;2023-06-19T06:40:11;6.55;;;4.57;;
6651;SDS011;3362;50.892;10.692;2023-06-19T06:42:38;5.78;;;4.63;;
6651;SDS011;3362;50.892;10.692;2023-06-19T06:45:04;5.88;;;4.93;;
6651;SDS011;3362;50.892;10.692;2023-06-19T06:47:33;29.85;;;6.10;;
6651;SDS011;3362;50.892;10.692;2023-06-19T06:49:59;7.72;;;5.18;;
6651;SDS011;3362;50.892;10.692;2023-06-19T06:52:25;20.92;;;5.72;;
6651;SDS011;3362;50.892;10.692;2023-06-19T06:54:52;11.23;;;5.03;;
6651;SDS011;3362;50.892;10.692;2023-06-19T06:57:19;13.55;;;4.90;;
6651;SDS011;3362;50.892;10.692;2023-06-19T06:59:45;6.80;;;4.32;;
6651;SDS011;3362;50.892;10.692;2023-06-19T07:02:11;6.53;;;4.95;;
6651;SDS011;3362;50.892;10.692;2023-06-19T07:04:39;5.88;;;4.22;;
6651;SDS011;3362;50.892;10.692;2023-06-19T07:07:05;6.25;;;5.07;;
6651;SDS011;3362;50.892;10.692;2023-06-19T07:09:33;5.53;;;4.22;;
6651;SDS011;3362;50.892;10.692;2023-06-19T07:11:59;5.07;;;4.45;;
6651;SDS011;3362;50.892;10.692;2023-06-19T07:14:26;6.55;;;4.63;;
6651;SDS011;3362;50.892;10.692;2023-06-19T07:16:53;5.85;;;5.25;;
6651;SDS011;3362;50.892;10.692;2023-06-19T07:19:19;6.57;;;4.65;;
6651;SDS011;3362;50.892;10.692;2023-06-19T07:21:46;9.25;;;4.72;;
6651;SDS011;3362;50.892;10.692;2023-06-19T07:24:12;7.53;;;5.15;;
6651;SDS011;3362;50.892;10.692;2023-06-19T07:26:39;9.45;;;4.88;;
6651;SDS011;3362;50.892;10.692;2023-06-19T07:29:05;7.32;;;4.90;;
6651;SDS011;3362;50.892;10.692;2023-06-19T07:31:31;8.82;;;5.50;;
6651;SDS011;3362;50.892;10.692;2023-06-19T07:33:58;6.68;;;4.70;;
6651;SDS011;3362;50.892;10.692;2023-06-19T07:36:24;10.25;;;4.82;;
6651;SDS011;3362;50.892;10.692;2023-06-19T07:38:51;10.45;;;4.70;;
6651;SDS011;3362;50.892;10.692;2023-06-19T07:41:18;6.35;;;4.88;;
6651;SDS011;3362;50.892;10.692;2023-06-19T07:43:44;7.88;;;4.90;;
6651;SDS011;3362;50.892;10.692;2023-06-19T07:46:10;5.68;;;4.93;;
6651;SDS011;3362;50.892;10.692;2023-06-19T07:48:36;9.18;;;5.03;;
6651;SDS011;3362;50.892;10.692;2023-06-19T07:51:02;6.43;;;4.13;;
6651;SDS011;3362;50.892;10.692;2023-06-19T07:53:29;6.10;;;4.50;;
6651;SDS011;3362;50.892;10.692;2023-06-19T07:55:56;8.02;;;5.18;;
6651;SDS011;3362;50.892;10.692;2023-06-19T07:58:22;7.28;;;4.82;;
6651;SDS011;3362;50.892;10.692;2023-06-19T08:00:49;7.38;;;4.72;;
6651;SDS011;3362;50.892;10.692;2023-06-19T08:03:15;7.28;;;4.93;;
6651;SDS011;3362;50.892;10.692;2023-06-19T08:05:41;8.02;;;4.75;;
6651;SDS011;3362;50.892;10.692;2023-06-19T08:08:07;6.78;;;4.68;;
6651;SDS011;3362;50.892;10.692;2023-06-19T08:10:33;7.22;;;5.28;;
6651;SDS011;3362;50.892;10.692;2023-06-19T08:13:01;7.47;;;4.70;;
6651;SDS011;3362;50.892;10.692;2023-06-19T08:15:27;7.18;;;5.47;;
6651;SDS011;3362;50.892;10.692;2023-06-19T08:17:53;7.63;;;5.07;;
6651;SDS011;3362;50.892;10.692;2023-06-19T08:20:20;7.30;;;4.93;;
6651;SDS011;3362;50.892;10.692;2023-06-19T08:22:46;6.22;;;5.05;;
6651;SDS011;3362;50.892;10.692;2023-06-19T08:25:12;6.53;;;4.70;;
6651;SDS011;3362;50.892;10.692;2023-06-19T08:27:38;6.38;;;4.93;;
6651;SDS011;3362;50.892;10.692;2023-06-19T08:30:07;6.50;;;4.63;;
6651;SDS011;3362;50.892;10.692;2023-06-19T08:32:33;6.97;;;5.03;;
6651;SDS011;3362;50.892;10.692;2023-06-19T08:34:59;6.55;;;5.05;;
6651;SDS011;3362;50.892;10.692;2023-06-19T08:37:25;5.07;;;3.75;;
6651;SDS011;3362;50.892;10.692;2023-06-19T08:39:52;4.80;;;4.13;;
6651;SDS011;3362;50.892;10.692;2023-06-19T08:42:18;5.18;;;3.97;;
6651;SDS011;3362;50.892;10.692;2023-06-19T08:44:44;6.10;;;4.22;;
6651;SDS011;3362;50.892;10.692;2023-06-19T08:47:12;8.93;;;4.53;;
6651;SDS011;3362;50.892;10.692;2023-06-19T08:49:38;7.32;;;4.25;;
6651;SDS011;3362;50.892;10.692;2023-06-19T08:52:05;6.32;;;4.60;;
6651;SDS011;3362;50.892;10.692;2023-06-19T08:54:32;20.13;;;6.15;;
6651;SDS011;3362;50.892;10.692;2023-06-19T08:56:59;7.97;;;5.07;;
6651;SDS011;3362;50.892;10.692;2023-06-19T08:59:26;4.63;;;3.50;;
6651;SDS011;3362;50.892;10.692;2023-06-19T09:01:53;4.15;;;3.75;;
6651;SDS011;3362;50.892;10.692;2023-06-19T09:04:22;5.68;;;3.97;;
6651;SDS011;3362;50.892;10.692;2023-06-19T09:06:49;3.88;;;3.30;;
6651;SDS011;3362;50.892;10.692;2023-06-19T09:09:15;5.75;;;4.05;;
6651;SDS011;3362;50.892;10.692;2023-06-19T09:11:41;3.80;;;3.47;;
6651;SDS011;3362;50.892;10.692;2023-06-19T09:14:09;6.88;;;3.90;;
6651;SDS011;3362;50.892;10.692;2023-06-19T09:16:36;3.63;;;3.20;;
6651;SDS011;3362;50.892;10.692;2023-06-19T09:19:02;5.00;;;3.25;;
6651;SDS011;3362;50.892;10.692;2023-06-19T09:21:30;6.50;;;3.08;;
6651;SDS011;3362;50.892;10.692;2023-06-19T09:24:01;4.05;;;3.33;;
6651;SDS011;3362;50.892;10.692;2023-06-19T09:26:28;4.50;;;3.78;;
6651;SDS011;3362;50.892;10.692;2023-06-19T09:28:54;5.30;;;3.83;;
6651;SDS011;3362;50.892;10.692;2023-06-19T09:31:20;5.35;;;3.20;;
6651;SDS011;3362;50.892;10.692;2023-06-19T09:33:46;5.53;;;3.83;;
6651;SDS011;3362;50.892;10.692;2023-06-19T09:36:12;3.92;;;3.53;;
6651;SDS011;3362;50.892;10.692;2023-06-19T09:38:40;4.93;;;4.05;;
6651;SDS011;3362;50.892;10.692;2023-06-19T09:41:06;6.03;;;3.50;;
6651;SDS011;3362;50.892;10.692;2023-06-19T09:43:33;4.88;;;4.10;;
6651;SDS011;3362;50.892;10.692;2023-06-19T09:46:00;9.07;;;5.97;;
6651;SDS011;3362;50.892;10.692;2023-06-19T09:48:27;4.45;;;3.72;;
6651;SDS011;3362;50.892;10.692;2023-06-19T09:50:54;6.28;;;3.97;;
6651;SDS011;3362;50.892;10.692;2023-06-19T09:53:23;7.88;;;4.07;;
6651;SDS011;3362;50.892;10.692;2023-06-19T09:55:51;4.10;;;3.47;;
6651;SDS011;3362;50.892;10.692;2023-06-19T09:58:17;5.57;;;3.70;;
6651;SDS011;3362;50.892;10.692;2023-06-19T10:00:44;4.03;;;3.40;;
6651;SDS011;3362;50.892;10.692;2023-06-19T10:03:11;4.47;;;3.65;;
6651;SDS011;3362;50.892;10.692;2023-06-19T10:05:38;6.38;;;3.13;;
6651;SDS011;3362;50.892;10.692;2023-06-19T10:08:04;3.67;;;3.28;;
6651;SDS011;3362;50.892;10.692;2023-06-19T10:10:31;3.33;;;2.72;;
6651;SDS011;3362;50.892;10.692;2023-06-19T10:13:00;3.33;;;3.03;;
6651;SDS011;3362;50.892;10.692;2023-06-19T10:15:39;3.50;;;2.90;;
6651;SDS011;3362;50.892;10.692;2023-06-19T10:18:06;4.97;;;3.42;;
6651;SDS011;3362;50.892;10.692;2023-06-19T10:20:33;4.97;;;3.30;;
6651;SDS011;3362;50.892;10.692;2023-06-19T10:23:02;4.10;;;3.70;;
6651;SDS011;3362;50.892;10.692;2023-06-19T10:25:29;4.68;;;3.25;;
6651;SDS011;3362;50.892;10.692;2023-06-19T10:27:56;5.43;;;3.55;;
6651;SDS011;3362;50.892;10.692;2023-06-19T10:30:23;4.55;;;3.55;;
6651;SDS011;3362;50.892;10.692;2023-06-19T10:32:50;8.18;;;3.92;;
6651;SDS011;3362;50.892;10.692;2023-06-19T10:35:18;4.07;;;3.15;;
6651;SDS011;3362;50.892;10.692;2023-06-19T10:37:47;6.95;;;3.45;;
6651;SDS011;3362;50.892;10.692;2023-06-19T10:40:13;7.05;;;3.78;;
6651;SDS011;3362;50.892;10.692;2023-06-19T10:42:40;4.60;;;3.58;;
6651;SDS011;3362;50.892;10.692;2023-06-19T10:45:07;4.68;;;3.10;;
6651;SDS011;3362;50.892;10.692;2023-06-19T10:47:37;4.25;;;3.45;;
6651;SDS011;3362;50.892;10.692;2023-06-19T10:50:03;3.80;;;3.10;;
6651;SDS011;3362;50.892;10.692;2023-06-19T10:52:30;3.72;;;3.40;;
6651;SDS011;3362;50.892;10.692;2023-06-19T10:54:56;3.70;;;3.08;;
6651;SDS011;3362;50.892;10.692;2023-06-19T10:57:26;4.78;;;3.13;;
6651;SDS011;3362;50.892;10.692;2023-06-19T10:59:52;4.65;;;3.13;;
6651;SDS011;3362;50.892;10.692;2023-06-19T11:02:19;3.30;;;3.00;;
6651;SDS011;3362;50.892;10.692;2023-06-19T11:04:46;3.60;;;3.30;;
6651;SDS011;3362;50.892;10.692;2023-06-19T11:07:12;6.28;;;2.97;;
6651;SDS011;3362;50.892;10.692;2023-06-19T11:09:39;4.35;;;3.53;;
6651;SDS011;3362;50.892;10.692;2023-06-19T11:12:05;3.83;;;3.42;;
6651;SDS011;3362;50.892;10.692;2023-06-19T11:14:33;4.40;;;3.08;;
6651;SDS011;3362;50.892;10.692;2023-06-19T11:17:04;4.10;;;3.58;;
6651;SDS011;3362;50.892;10.692;2023-06-19T11:19:31;5.93;;;3.25;;
6651;SDS011;3362;50.892;10.692;2023-06-19T11:21:59;4.82;;;3.30;;
6651;SDS011;3362;50.892;10.692;2023-06-19T11:24:27;5.05;;;3.35;;
6651;SDS011;3362;50.892;10.692;2023-06-19T11:26:55;4.88;;;3.78;;
6651;SDS011;3362;50.892;10.692;2023-06-19T11:29:22;3.58;;;3.28;;
6651;SDS011;3362;50.892;10.692;2023-06-19T11:31:48;5.22;;;2.97;;
6651;SDS011;3362;50.892;10.692;2023-06-19T11:34:15;4.30;;;3.35;;
6651;SDS011;3362;50.892;10.692;2023-06-19T11:36:41;4.93;;;3.10;;
6651;SDS011;3362;50.892;10.692;2023-06-19T11:39:10;4.05;;;3.53;;
6651;SDS011;3362;50.892;10.692;2023-06-19T11:41:38;3.20;;;2.90;;
6651;SDS011;3362;50.892;10.692;2023-06-19T11:44:05;9.57;;;3.60;;
6651;SDS011;3362;50.892;10.692;2023-06-19T11:46:32;7.18;;;4.53;;
6651;SDS011;3362;50.892;10.692;2023-06-19T11:49:08;4.40;;;3.97;;
6651;SDS011;3362;50.892;10.692;2023-06-19T11:51:34;4.75;;;4.00;;
6651;SDS011;3362;50.892;10.692;2023-06-19T11:54:00;4.00;;;3.60;;
6651;SDS011;3362;50.892;10.692;2023-06-19T11:56:29;5.15;;;4.03;;
6651;SDS011;3362;50.892;10.692;2023-06-19T11:58:55;4.07;;;3.25;;
6651;SDS011;3362;50.892;10.692;2023-06-19T12:01:21;6.80;;;4.03;;
6651;SDS011;3362;50.892;10.692;2023-06-19T12:03:47;4.18;;;3.33;;
6651;SDS011;3362;50.892;10.692;2023-06-19T12:06:14;4.00;;;3.30;;
6651;SDS011;3362;50.892;10.692;2023-06-19T12:08:40;3.88;;;3.47;;
6651;SDS011;3362;50.892;10.692;2023-06-19T12:11:06;5.35;;;4.18;;
6651;SDS011;3362;50.892;10.692;2023-06-19T12:13:35;3.90;;;3.50;;
6651;SDS011;3362;50.892;10.692;2023-06-19T12:16:01;4.78;;;3.40;;
6651;SDS011;3362;50.892;10.692;2023-06-19T12:18:28;6.00;;;3.85;;
6651;SDS011;3362;50.892;10.692;2023-06-19T12:20:55;3.55;;;3.25;;
6651;SDS011;3362;50.892;10.692;2023-06-19T12:23:21;3.42;;;3.10;;
6651;SDS011;3362;50.892;10.692;2023-06-19T12:25:47;3.53;;;3.15;;
6651;SDS011;3362;50.892;10.692;2023-06-19T12:28:13;2.65;;;2.45;;
6651;SDS011;3362;50.892;10.692;2023-06-19T12:30:44;2.83;;;2.55;;
6651;SDS011;3362;50.892;10.692;2023-06-19T12:33:11;3.03;;;2.72;;
6651;SDS011;3362;50.892;10.692;2023-06-19T12:35:38;2.78;;;2.58;;
6651;SDS011;3362;50.892;10.692;2023-06-19T12:38:04;3.13;;;2.42;;
6651;SDS011;3362;50.892;10.692;2023-06-19T12:40:31;5.15;;;3.72;;
6651;SDS011;3362;50.892;10.692;2023-06-19T12:42:58;2.92;;;2.63;;
6651;SDS011;3362;50.892;10.692;2023-06-19T12:45:24;3.00;;;2.70;;
6651;SDS011;3362;50.892;10.692;2023-06-19T12:47:51;3.42;;;2.97;;
6651;SDS011;3362;50.892;10.692;2023-06-19T12:50:17;3.03;;;2.70;;
6651;SDS011;3362;50.892;10.692;2023-06-19T12:52:44;8.63;;;2.95;;
6651;SDS011;3362;50.892;10.692;2023-06-19T12:55:10;2.63;;;2.35;;
6651;SDS011;3362;50.892;10.692;2023-06-19T12:57:36;6.40;;;2.70;;
6651;SDS011;3362;50.892;10.692;2023-06-19T13:00:03;4.15;;;3.13;;
6651;SDS011;3362;50.892;10.692;2023-06-19T13:02:30;4.18;;;2.90;;
6651;SDS011;3362;50.892;10.692;2023-06-19T13:04:58;2.72;;;2.53;;
6651;SDS011;3362;50.892;10.692;2023-06-19T13:07:24;3.88;;;3.10;;
6651;SDS011;3362;50.892;10.692;2023-06-19T13:09:50;3.60;;;3.13;;
6651;SDS011;3362;50.892;10.692;2023-06-19T13:12:17;3.20;;;2.90;;
6651;SDS011;3362;50.892;10.692;2023-06-19T13:14:43;2.55;;;2.20;;
6651;SDS011;3362;50.892;10.692;2023-06-19T13:17:09;2.88;;;2.60;;
6651;SDS011;3362;50.892;10.692;2023-06-19T13:19:35;3.40;;;2.97;;
6651;SDS011;3362;50.892;10.692;2023-06-19T13:22:03;2.63;;;2.42;;
6651;SDS011;3362;50.892;10.692;2023-06-19T13:24:29;4.10;;;2.72;;
6651;SDS011;3362;50.892;10.692;2023-06-19T13:26:55;2.67;;;2.47;;
6651;SDS011;3362;50.892;10.692;2023-06-19T13:29:21;3.63;;;2.33;;
6651;SDS011;3362;50.892;10.692;2023-06-19T13:31:47;2.85;;;2.53;;
6651;SDS011;3362;50.892;10.692;2023-06-19T13:34:14;3.33;;;2.97;;
6651;SDS011;3362;50.892;10.692;2023-06-19T13:36:41;2.97;;;2.50;;
6651;SDS011;3362;50.892;10.692;2023-06-19T13:39:08;3.03;;;2.70;;
6651;SDS011;3362;50.892;10.692;2023-06-19T13:41:35;2.55;;;2.35;;
6651;SDS011;3362;50.892;10.692;2023-06-19T13:44:02;2.55;;;2.35;;
6651;SDS011;3362;50.892;10.692;2023-06-19T13:46:28;2.90;;;2.60;;
6651;SDS011;3362;50.892;10.692;2023-06-19T13:48:56;4.50;;;2.70;;
6651;SDS011;3362;50.892;10.692;2023-06-19T13:51:22;3.42;;;3.00;;
6651;SDS011;3362;50.892;10.692;2023-06-19T13:53:49;3.50;;;3.20;;
6651;SDS011;3362;50.892;10.692;2023-06-19T13:56:17;3.15;;;2.58;;
6651;SDS011;3362;50.892;10.692;2023-06-19T13:58:43;4.00;;;2.67;;
6651;SDS011;3362;50.892;10.692;2023-06-19T14:01:09;3.65;;;3.35;;
6651;SDS011;3362;50.892;10.692;2023-06-19T14:03:36;2.60;;;2.40;;
6651;SDS011;3362;50.892;10.692;2023-06-19T14:06:02;3.80;;;2.78;;
6651;SDS011;3362;50.892;10.692;2023-06-19T14:08:29;3.78;;;2.90;;
6651;SDS011;3362;50.892;10.692;2023-06-19T14:10:55;3.15;;;2.78;;
6651;SDS011;3362;50.892;10.692;2023-06-19T14:13:23;3.92;;;3.35;;
6651;SDS011;3362;50.892;10.692;2023-06-19T14:15:49;3.45;;;3.15;;
6651;SDS011;3362;50.892;10.692;2023-06-19T14:18:16;4.50;;;3.03;;
6651;SDS011;3362;50.892;10.692;2023-06-19T14:20:42;3.38;;;2.80;;
6651;SDS011;3362;50.892;10.692;2023-06-19T14:23:08;5.00;;;2.90;;
6651;SDS011;3362;50.892;10.692;2023-06-19T14:25:34;4.93;;;2.75;;
6651;SDS011;3362;50.892;10.692;2023-06-19T14:28:00;3.92;;;3.20;;
6651;SDS011;3362;50.892;10.692;2023-06-19T14:30:28;4.38;;;3.38;;
6651;SDS011;3362;50.892;10.692;2023-06-19T14:32:54;3.35;;;3.05;;
6651;SDS011;3362;50.892;10.692;2023-06-19T14:35:20;3.35;;;2.63;;
6651;SDS011;3362;50.892;10.692;2023-06-19T14:37:47;7.55;;;3.30;;
6651;SDS011;3362;50.892;10.692;2023-06-19T14:40:13;3.58;;;3.00;;
6651;SDS011;3362;50.892;10.692;2023-06-19T14:42:39;4.18;;;3.55;;
6651;SDS011;3362;50.892;10.692;2023-06-19T14:45:06;3.90;;;3.53;;
6651;SDS011;3362;50.892;10.692;2023-06-19T14:47:33;3.50;;;3.20;;
6651;SDS011;3362;50.892;10.692;2023-06-19T14:49:59;4.15;;;3.72;;
6651;SDS011;3362;50.892;10.692;2023-06-19T14:52:26;6.68;;;3.50;;
6651;SDS011;3362;50.892;10.692;2023-06-19T14:54:52;6.47;;;3.25;;
6651;SDS011;3362;50.892;10.692;2023-06-19T14:57:18;3.60;;;3.30;;